Tabea — CQDB — position and weather

sailwx.info

Track history (hours):
 
Tides and Currents Weather Stations Pressure Air Temp Water Temp Dewpoint Dewpoint Depression Visibility Wind Speed Wind Dir Waves Ship Positions

Tabea

Last reported at 2018-Apr-10 15:50 UTC. Time now 2018-Apr-21 07:55 UTC.
Position N 17°45' W 060°47'.
Warning: this ship's position is 10 days out of date.

Length 276 m; draft 10.5 m.

Type: Ship (hazmat cat A). MMSI: 255805778.

Date/timePositionNaut miles runAvg speedWind from/ knotsBaromVisibWave heightAir tempDewpointWater temp
2018-Apr-10 15:50N 17°45' W 060°47'618.9
2018-Apr-10 15:30N 17°49' W 060°52'1019.0
2018-Apr-10 15:00N 17°55' W 061°00'1019.3
2018-Apr-10 14:29N 18°00' W 061°09'  
2018-Apr-08 05:14N 26°17' W 079°05'620.2
2018-Apr-08 04:56N 26°16' W 079°12'920.4
2018-Apr-08 04:30N 26°15' W 079°21'1020.2
2018-Apr-08 04:00N 26°13' W 079°32'1020.3
2018-Apr-08 03:30N 26°11' W 079°44'1020.3
2018-Apr-08 03:00N 26°09' W 079°55'918.0
2018-Apr-08 02:30N 26°06' W 080°04'3 5.5
2018-Apr-08 02:00N 26°05' W 080°07'1 1.1
2018-Apr-08 01:29N 26°04' W 080°07'0 0.0
2018-Apr-08 00:59N 26°04' W 080°07'0 0.0
2018-Apr-08 00:29N 26°04' W 080°07'0 0.0
2018-Apr-07 23:59N 26°04' W 080°07'0 0.0
2018-Apr-07 23:29N 26°04' W 080°07'0 0.0
2018-Apr-07 22:59N 26°04' W 080°07'0 0.0
2018-Apr-07 22:29N 26°04' W 080°07'0 0.0
2018-Apr-07 21:59N 26°04' W 080°07'0 0.0
2018-Apr-07 21:29N 26°04' W 080°07'0 0.0
2018-Apr-07 20:59N 26°04' W 080°07'0 0.0
2018-Apr-07 20:29N 26°04' W 080°07'0 0.0
2018-Apr-07 19:59N 26°04' W 080°07'0 0.0
2018-Apr-07 19:29N 26°04' W 080°07'0 0.0
2018-Apr-07 18:59N 26°04' W 080°07'0 0.0
2018-Apr-07 18:29N 26°04' W 080°07'0 0.0
2018-Apr-07 17:59N 26°04' W 080°07'0 0.0
2018-Apr-07 17:29N 26°04' W 080°07'0 0.0
2018-Apr-07 16:59N 26°04' W 080°07'0 0.0
2018-Apr-07 16:29N 26°04' W 080°07'0 0.0
2018-Apr-07 15:59N 26°04' W 080°07'0 0.0
2018-Apr-07 15:29N 26°04' W 080°07'0 0.0
2018-Apr-07 14:59N 26°04' W 080°07'0 0.0
2018-Apr-07 14:29N 26°04' W 080°07'0 0.0
2018-Apr-07 13:59N 26°04' W 080°07'0 0.0
2018-Apr-07 13:29N 26°04' W 080°07'0 0.0
2018-Apr-07 12:59N 26°04' W 080°07'0 0.0
2018-Apr-07 12:29N 26°04' W 080°07'0 0.0
2018-Apr-07 12:01N 26°04' W 080°07'0 0.3
2018-Apr-07 11:31N 26°04' W 080°07'1 2.4
2018-Apr-07 11:00N 26°06' W 080°06'5 9.1
2018-Apr-07 10:30N 26°05' W 080°01'3 6.7
2018-Apr-07 10:00N 26°08' W 079°59'3 6.9
2018-Apr-07 09:30N 26°12' W 079°59'510.4
2018-Apr-07 09:00N 26°17' W 079°58'714.5
2018-Apr-07 08:30N 26°24' W 079°56'815.7
2018-Apr-07 08:00N 26°32' W 079°54'1115.8
2018-Apr-07 07:18N 26°43' W 079°54'516.6
2018-Apr-07 07:00N 26°48' W 079°55'816.3
2018-Apr-07 06:30N 26°56' W 079°56'815.5
2018-Apr-07 06:00N 27°03' W 079°57'  
2018-Apr-04 00:47N 32°35' W 079°30'0 0.0
2018-Apr-04 00:17N 32°35' W 079°30'0 0.0
2018-Apr-03 23:53N 32°35' W 079°30'0 0.0
2018-Apr-03 23:23N 32°35' W 079°30'0 0.0
2018-Apr-03 22:59N 32°35' W 079°30'0 0.0
2018-Apr-03 22:29N 32°35' W 079°30'0 0.0
2018-Apr-03 02:23N 32°35' W 079°30'6 0.4
2018-Apr-02 14:04N 32°36' W 079°23'110.0
2018-Apr-02 13:59N 32°36' W 079°23'1010.1
2018-Apr-02 12:57N 32°41' W 079°12'510.1
2018-Apr-02 12:25N 32°44' W 079°07'811.6
2018-Apr-02 11:45N 32°48' W 078°58'414.4
2018-Apr-02 11:28N 32°49' W 078°54'3318.4
2018-Apr-02 09:40N 33°05' W 078°19'918.8
2018-Apr-02 09:12N 33°09' W 078°10'418.7
2018-Apr-02 09:00N 33°11' W 078°06'24614.5
2018-Apr-01 16:01N 36°47' W 075°43'110.0
2018-Apr-01 15:57N 36°47' W 075°44'510.0
2018-Apr-01 15:27N 36°50' W 075°49'510.0
2018-Apr-01 15:00N 36°53' W 075°53'5 9.7
2018-Apr-01 14:30N 36°56' W 075°58'611.0
2018-Apr-01 14:00N 36°58' W 076°04'714.1
2018-Apr-01 13:30N 36°60' W 076°13'612.2
2018-Apr-01 13:00N 36°58' W 076°20'3 6.0
2018-Apr-01 12:30N 36°56' W 076°20'0 0.2
2018-Apr-01 12:01N 36°55' W 076°20'0 0.0
2018-Apr-01 11:31N 36°55' W 076°20'0 0.0
2018-Apr-01 11:01N 36°55' W 076°20'0 0.0
2018-Apr-01 10:31N 36°55' W 076°20'0 0.0
2018-Apr-01 10:01N 36°55' W 076°20'0 0.0
2018-Apr-01 09:31N 36°55' W 076°20'0 0.0
2018-Apr-01 09:01N 36°55' W 076°20'0 0.0
2018-Apr-01 08:31N 36°55' W 076°20'0 0.1
2018-Apr-01 08:01N 36°55' W 076°20'0 0.1
2018-Apr-01 07:30N 36°55' W 076°20'0 0.0
2018-Apr-01 07:00N 36°55' W 076°20'0 0.0
2018-Apr-01 06:31N 36°55' W 076°20'0 0.0
2018-Apr-01 05:59N 36°55' W 076°20'0 0.0
2018-Apr-01 05:30N 36°55' W 076°20'0 0.0
2018-Apr-01 05:01N 36°55' W 076°20'0 0.0
2018-Apr-01 04:31N 36°55' W 076°20'0 0.0
2018-Apr-01 04:00N 36°55' W 076°20'0 0.0
2018-Apr-01 03:30N 36°55' W 076°20'0 0.0
2018-Apr-01 03:00N 36°55' W 076°20'0 0.0
2018-Apr-01 02:29N 36°55' W 076°20'0 0.0
2018-Apr-01 02:00N 36°55' W 076°20'0 0.0
2018-Apr-01 01:30N 36°55' W 076°20'0 0.0
2018-Apr-01 01:01N 36°55' W 076°20'0 0.0
2018-Apr-01 00:31N 36°55' W 076°20'0 0.0
2018-Apr-01 00:01N 36°55' W 076°20'0 0.0
2018-Mar-31 23:30N 36°55' W 076°20'0 0.0
2018-Mar-31 23:00N 36°55' W 076°20'0 0.0
2018-Mar-31 22:31N 36°55' W 076°20'0 0.0
2018-Mar-31 22:00N 36°55' W 076°20'0 0.0
2018-Mar-31 21:31N 36°55' W 076°20'0 0.0
2018-Mar-31 21:00N 36°55' W 076°20'0 1.0
2018-Mar-31 20:30N 36°56' W 076°20'7 8.0
2018-Mar-31 19:36N 37°00' W 076°13'215.9
2018-Mar-31 19:29N 36°60' W 076°11'816.3
2018-Mar-31 18:59N 36°57' W 076°01'5 9.8
2018-Mar-31 18:30N 36°55' W 075°55'5 9.3
2018-Mar-31 18:00N 36°52' W 075°51'7 9.9
2018-Mar-31 17:20N 36°49' W 075°44'3 9.3
2018-Mar-31 16:59N 36°49' W 075°40'  
Track history (hours):
 
Tides and Currents Weather Stations Pressure Air Temp Water Temp Dewpoint Dewpoint Depression Visibility Wind Speed Wind Dir Waves Ship Positions

Tabea

Last reported at 2018-Apr-10 15:50 UTC. Time now 2018-Apr-21 07:55 UTC.
Position N 17°45' W 060°47'.
Warning: this ship's position is 10 days out of date.

Length 276 m; draft 10.5 m.

Type: Ship (hazmat cat A). MMSI: 255805778.

Date/timePositionNaut miles runAvg speedWind from/ knotsBaromVisibWave heightAir tempDewpointWater temp
2018-Apr-10 15:50N 17°45' W 060°47'618.9
2018-Apr-10 15:30N 17°49' W 060°52'1019.0
2018-Apr-10 15:00N 17°55' W 061°00'1019.3
2018-Apr-10 14:29N 18°00' W 061°09'  
2018-Apr-08 05:14N 26°17' W 079°05'620.2
2018-Apr-08 04:56N 26°16' W 079°12'920.4
2018-Apr-08 04:30N 26°15' W 079°21'1020.2
2018-Apr-08 04:00N 26°13' W 079°32'1020.3
2018-Apr-08 03:30N 26°11' W 079°44'1020.3
2018-Apr-08 03:00N 26°09' W 079°55'918.0
2018-Apr-08 02:30N 26°06' W 080°04'3 5.5
2018-Apr-08 02:00N 26°05' W 080°07'1 1.1
2018-Apr-08 01:29N 26°04' W 080°07'0 0.0
2018-Apr-08 00:59N 26°04' W 080°07'0 0.0
2018-Apr-08 00:29N 26°04' W 080°07'0 0.0
2018-Apr-07 23:59N 26°04' W 080°07'0 0.0
2018-Apr-07 23:29N 26°04' W 080°07'0 0.0
2018-Apr-07 22:59N 26°04' W 080°07'0 0.0
2018-Apr-07 22:29N 26°04' W 080°07'0 0.0
2018-Apr-07 21:59N 26°04' W 080°07'0 0.0
2018-Apr-07 21:29N 26°04' W 080°07'0 0.0
2018-Apr-07 20:59N 26°04' W 080°07'0 0.0
2018-Apr-07 20:29N 26°04' W 080°07'0 0.0
2018-Apr-07 19:59N 26°04' W 080°07'0 0.0
2018-Apr-07 19:29N 26°04' W 080°07'0 0.0
2018-Apr-07 18:59N 26°04' W 080°07'0 0.0
2018-Apr-07 18:29N 26°04' W 080°07'0 0.0
2018-Apr-07 17:59N 26°04' W 080°07'0 0.0
2018-Apr-07 17:29N 26°04' W 080°07'0 0.0
2018-Apr-07 16:59N 26°04' W 080°07'0 0.0
2018-Apr-07 16:29N 26°04' W 080°07'0 0.0
2018-Apr-07 15:59N 26°04' W 080°07'0 0.0
2018-Apr-07 15:29N 26°04' W 080°07'0 0.0
2018-Apr-07 14:59N 26°04' W 080°07'0 0.0
2018-Apr-07 14:29N 26°04' W 080°07'0 0.0
2018-Apr-07 13:59N 26°04' W 080°07'0 0.0
2018-Apr-07 13:29N 26°04' W 080°07'0 0.0
2018-Apr-07 12:59N 26°04' W 080°07'0 0.0
2018-Apr-07 12:29N 26°04' W 080°07'0 0.0
2018-Apr-07 12:01N 26°04' W 080°07'0 0.3
2018-Apr-07 11:31N 26°04' W 080°07'1 2.4
2018-Apr-07 11:00N 26°06' W 080°06'5 9.1
2018-Apr-07 10:30N 26°05' W 080°01'3 6.7
2018-Apr-07 10:00N 26°08' W 079°59'3 6.9
2018-Apr-07 09:30N 26°12' W 079°59'510.4
2018-Apr-07 09:00N 26°17' W 079°58'714.5
2018-Apr-07 08:30N 26°24' W 079°56'815.7
2018-Apr-07 08:00N 26°32' W 079°54'1115.8
2018-Apr-07 07:18N 26°43' W 079°54'516.6
2018-Apr-07 07:00N 26°48' W 079°55'816.3
2018-Apr-07 06:30N 26°56' W 079°56'815.5
2018-Apr-07 06:00N 27°03' W 079°57'  
2018-Apr-04 00:47N 32°35' W 079°30'0 0.0
2018-Apr-04 00:17N 32°35' W 079°30'0 0.0
2018-Apr-03 23:53N 32°35' W 079°30'0 0.0
2018-Apr-03 23:23N 32°35' W 079°30'0 0.0
2018-Apr-03 22:59N 32°35' W 079°30'0 0.0
2018-Apr-03 22:29N 32°35' W 079°30'0 0.0
2018-Apr-03 02:23N 32°35' W 079°30'6 0.4
2018-Apr-02 14:04N 32°36' W 079°23'110.0
2018-Apr-02 13:59N 32°36' W 079°23'1010.1
2018-Apr-02 12:57N 32°41' W 079°12'510.1
2018-Apr-02 12:25N 32°44' W 079°07'811.6
2018-Apr-02 11:45N 32°48' W 078°58'414.4
2018-Apr-02 11:28N 32°49' W 078°54'3318.4
2018-Apr-02 09:40N 33°05' W 078°19'918.8
2018-Apr-02 09:12N 33°09' W 078°10'418.7
2018-Apr-02 09:00N 33°11' W 078°06'24614.5
2018-Apr-01 16:01N 36°47' W 075°43'110.0
2018-Apr-01 15:57N 36°47' W 075°44'510.0
2018-Apr-01 15:27N 36°50' W 075°49'510.0
2018-Apr-01 15:00N 36°53' W 075°53'5 9.7
2018-Apr-01 14:30N 36°56' W 075°58'611.0
2018-Apr-01 14:00N 36°58' W 076°04'714.1
2018-Apr-01 13:30N 36°60' W 076°13'612.2
2018-Apr-01 13:00N 36°58' W 076°20'3 6.0
2018-Apr-01 12:30N 36°56' W 076°20'0 0.2
2018-Apr-01 12:01N 36°55' W 076°20'0 0.0
2018-Apr-01 11:31N 36°55' W 076°20'0 0.0
2018-Apr-01 11:01N 36°55' W 076°20'0 0.0
2018-Apr-01 10:31N 36°55' W 076°20'0 0.0
2018-Apr-01 10:01N 36°55' W 076°20'0 0.0
2018-Apr-01 09:31N 36°55' W 076°20'0 0.0
2018-Apr-01 09:01N 36°55' W 076°20'0 0.0
2018-Apr-01 08:31N 36°55' W 076°20'0 0.1
2018-Apr-01 08:01N 36°55' W 076°20'0 0.1
2018-Apr-01 07:30N 36°55' W 076°20'0 0.0
2018-Apr-01 07:00N 36°55' W 076°20'0 0.0
2018-Apr-01 06:31N 36°55' W 076°20'0 0.0
2018-Apr-01 05:59N 36°55' W 076°20'0 0.0
2018-Apr-01 05:30N 36°55' W 076°20'0 0.0
2018-Apr-01 05:01N 36°55' W 076°20'0 0.0
2018-Apr-01 04:31N 36°55' W 076°20'0 0.0
2018-Apr-01 04:00N 36°55' W 076°20'0 0.0
2018-Apr-01 03:30N 36°55' W 076°20'0 0.0
2018-Apr-01 03:00N 36°55' W 076°20'0 0.0
2018-Apr-01 02:29N 36°55' W 076°20'0 0.0
2018-Apr-01 02:00N 36°55' W 076°20'0 0.0
2018-Apr-01 01:30N 36°55' W 076°20'0 0.0
2018-Apr-01 01:01N 36°55' W 076°20'0 0.0
2018-Apr-01 00:31N 36°55' W 076°20'0 0.0
2018-Apr-01 00:01N 36°55' W 076°20'0 0.0
2018-Mar-31 23:30N 36°55' W 076°20'0 0.0
2018-Mar-31 23:00N 36°55' W 076°20'0 0.0
2018-Mar-31 22:31N 36°55' W 076°20'0 0.0
2018-Mar-31 22:00N 36°55' W 076°20'0 0.0
2018-Mar-31 21:31N 36°55' W 076°20'0 0.0
2018-Mar-31 21:00N 36°55' W 076°20'0 1.0
2018-Mar-31 20:30N 36°56' W 076°20'7 8.0
2018-Mar-31 19:36N 37°00' W 076°13'215.9
2018-Mar-31 19:29N 36°60' W 076°11'816.3
2018-Mar-31 18:59N 36°57' W 076°01'5 9.8
2018-Mar-31 18:30N 36°55' W 075°55'5 9.3
2018-Mar-31 18:00N 36°52' W 075°51'7 9.9
2018-Mar-31 17:20N 36°49' W 075°44'3 9.3
2018-Mar-31 16:59N 36°49' W 075°40'  

Dump ship's entire track history